createdAt,value
2015-05-02T00:00:03.669Z,18.8
2015-05-02T00:00:22.219Z,18.8
2015-05-02T00:00:41.000Z,18.8
2015-05-02T00:00:59.797Z,18.8
2015-05-02T00:01:18.221Z,18.8
2015-05-02T00:01:36.752Z,18.8
2015-05-02T00:01:55.143Z,18.8
2015-05-02T00:02:13.877Z,18.9
2015-05-02T00:02:32.504Z,18.9
2015-05-02T00:02:51.067Z,18.9
2015-05-02T00:03:09.926Z,18.9
2015-05-02T00:03:28.507Z,18.9
2015-05-02T00:03:47.023Z,19
2015-05-02T00:04:05.413Z,19
2015-05-02T00:04:23.804Z,19
2015-05-02T00:04:42.510Z,19.1
2015-05-02T00:05:01.057Z,19.1
2015-05-02T00:05:19.604Z,19.1
2015-05-02T00:05:38.028Z,19.2
2015-05-02T00:05:56.481Z,19.2
2015-05-02T00:06:15.012Z,19.3
2015-05-02T00:06:33.465Z,19.3
2015-05-02T00:06:52.077Z,19.3
2015-05-02T00:07:10.608Z,19.3
2015-05-02T00:07:29.045Z,19.4
2015-05-02T00:07:47.470Z,19.4
2015-05-02T00:08:05.955Z,19.4
2015-05-02T00:08:24.423Z,19.4
2015-05-02T00:08:43.207Z,19.5
2015-05-02T00:09:01.613Z,19.5
2015-05-02T00:09:20.113Z,19.5
2015-05-02T00:09:38.630Z,19.5
2015-05-02T00:09:57.037Z,19.4
2015-05-02T00:10:15.568Z,19.3
2015-05-02T00:10:34.130Z,19.2
2015-05-02T00:10:52.805Z,19.1
2015-05-02T00:11:11.290Z,19
2015-05-02T00:11:29.727Z,18.9
2015-05-02T00:11:48.245Z,18.8
2015-05-02T00:12:06.745Z,18.7
2015-05-02T00:12:25.214Z,18.7
2015-05-02T00:12:43.684Z,18.6
2015-05-02T00:13:02.403Z,18.6
2015-05-02T00:13:21.012Z,18.6
2015-05-02T00:13:39.091Z,18.5
2015-05-02T00:13:57.515Z,18.5
2015-05-02T00:14:16.265Z,18.5
2015-05-02T00:14:34.672Z,18.4
2015-05-02T00:14:53.330Z,18.4
2015-05-02T00:15:11.846Z,18.5
2015-05-02T00:15:30.346Z,18.5
2015-05-02T00:15:48.863Z,18.5
2015-05-02T00:16:07.285Z,18.5
2015-05-02T00:16:25.879Z,18.5
2015-05-02T00:16:44.426Z,18.6
2015-05-02T00:17:02.913Z,18.6
2015-05-02T00:17:21.335Z,18.7
2015-05-02T00:17:39.726Z,18.7
2015-05-02T00:17:58.384Z,18.7
2015-05-02T00:18:17.009Z,18.8
2015-05-02T00:18:35.603Z,18.8
2015-05-02T00:18:54.323Z,18.9
2015-05-02T00:19:12.761Z,18.9
2015-05-02T00:19:31.323Z,19
2015-05-02T00:19:49.733Z,19
2015-05-02T00:20:08.170Z,19
2015-05-02T00:20:26.826Z,19.1
2015-05-02T00:20:45.389Z,19.1
2015-05-02T00:21:03.906Z,19.2
2015-05-02T00:21:22.438Z,19.2
2015-05-02T00:21:40.906Z,19.2
2015-05-02T00:21:59.456Z,19.2
2015-05-02T00:22:17.894Z,19.3
2015-05-02T00:22:36.300Z,19.3
2015-05-02T00:22:54.771Z,19.4
2015-05-02T00:23:13.271Z,19.4
2015-05-02T00:23:31.911Z,19.4
2015-05-02T00:23:50.318Z,19.5
2015-05-02T00:24:08.914Z,19.5
2015-05-02T00:24:27.477Z,19.5
2015-05-02T00:24:45.899Z,19.6
2015-05-02T00:25:04.338Z,19.6
2015-05-02T00:25:22.807Z,19.6
2015-05-02T00:25:41.213Z,19.6
2015-05-02T00:25:59.606Z,19.7
2015-05-02T00:26:18.231Z,19.7
2015-05-02T00:26:36.762Z,19.7
2015-05-02T00:26:55.231Z,19.7
2015-05-02T00:27:13.811Z,19.8
2015-05-02T00:27:32.420Z,19.8
2015-05-02T00:27:50.905Z,19.8
2015-05-02T00:28:09.408Z,19.8
2015-05-02T00:28:27.814Z,19.9
2015-05-02T00:28:46.830Z,19.9
2015-05-02T00:29:05.330Z,19.9
2015-05-02T00:29:23.957Z,19.9
2015-05-02T00:29:42.425Z,19.9
2015-05-02T00:30:01.050Z,20
2015-05-02T00:30:19.538Z,20
2015-05-02T00:30:38.022Z,20
2015-05-02T00:30:56.460Z,20
2015-05-02T00:31:15.335Z,20
2015-05-02T00:31:33.963Z,20.1
2015-05-02T00:31:52.541Z,20.1
2015-05-02T00:32:11.369Z,20.1
2015-05-02T00:32:29.933Z,20.1
2015-05-02T00:32:48.527Z,20.1
2015-05-02T00:33:07.230Z,20.1
2015-05-02T00:33:25.654Z,20.2
2015-05-02T00:33:44.154Z,20.2
2015-05-02T00:34:02.545Z,20.2
2015-05-02T00:34:21.203Z,20.2
2015-05-02T00:34:39.719Z,20.3
2015-05-02T00:34:58.203Z,20.3
2015-05-02T00:35:16.703Z,20.3
2015-05-02T00:35:35.471Z,20.3
2015-05-02T00:35:53.939Z,20.3
2015-05-02T00:36:12.533Z,20.3
2015-05-02T00:36:31.005Z,20.3
2015-05-02T00:36:49.567Z,20.4
2015-05-02T00:37:07.989Z,20.4
2015-05-02T00:37:26.538Z,20.4
2015-05-02T00:37:45.023Z,20.4
2015-05-02T00:38:03.523Z,20.4
2015-05-02T00:38:21.929Z,20.4
2015-05-02T00:38:40.354Z,20.4
2015-05-02T00:38:58.776Z,20.4
2015-05-02T00:39:17.229Z,20.5
2015-05-02T00:39:35.168Z,20.5
2015-05-02T00:39:53.653Z,20.5
2015-05-02T00:40:12.043Z,20.5
2015-05-02T00:40:30.483Z,20.5
2015-05-02T00:40:49.014Z,20.5
2015-05-02T00:41:07.436Z,20.5
2015-05-02T00:41:25.858Z,20.5
2015-05-02T00:41:44.282Z,20.6
2015-05-02T00:42:02.828Z,20.6
2015-05-02T00:42:21.297Z,20.6
2015-05-02T00:42:39.675Z,20.6
2015-05-02T00:42:58.175Z,20.6
2015-05-02T00:43:16.597Z,20.6
2015-05-02T00:43:35.052Z,20.6
2015-05-02T00:43:53.521Z,20.6
2015-05-02T00:44:11.927Z,20.6
2015-05-02T00:44:30.349Z,20.6
2015-05-02T00:44:48.773Z,20.6
2015-05-02T00:45:07.179Z,20.6
2015-05-02T00:45:25.601Z,20.7
2015-05-02T00:45:44.135Z,20.7
2015-05-02T00:46:02.526Z,20.7
2015-05-02T00:46:20.948Z,20.7
2015-05-02T00:46:39.340Z,20.7
2015-05-02T00:46:57.731Z,20.7
2015-05-02T00:47:16.340Z,20.7
2015-05-02T00:47:34.905Z,20.7
2015-05-02T00:47:53.311Z,20.7
2015-05-02T00:48:11.764Z,20.7
2015-05-02T00:48:30.155Z,20.7
2015-05-02T00:48:48.818Z,20.7
2015-05-02T00:49:07.271Z,20.7
2015-05-02T00:49:25.662Z,20.7
2015-05-02T00:49:44.159Z,20.7
2015-05-02T00:50:02.722Z,20.7
2015-05-02T00:50:21.175Z,20.7
2015-05-02T00:50:39.659Z,20.7
2015-05-02T00:50:58.315Z,20.7
2015-05-02T00:51:16.831Z,20.7
2015-05-02T00:51:35.299Z,20.7
2015-05-02T00:51:53.719Z,20.7
2015-05-02T00:52:12.375Z,20.8
2015-05-02T00:52:30.875Z,20.8
2015-05-02T00:52:49.311Z,20.8
2015-05-02T00:53:07.733Z,20.8
2015-05-02T00:53:26.389Z,20.8
2015-05-02T00:53:44.900Z,20.8
2015-05-02T00:54:03.275Z,20.8
2015-05-02T00:54:21.900Z,20.8
2015-05-02T00:54:40.306Z,20.8
2015-05-02T00:54:58.875Z,20.8
2015-05-02T00:55:17.640Z,20.8
2015-05-02T00:55:36.296Z,20.8
2015-05-02T00:55:54.711Z,20.8
2015-05-02T00:56:13.117Z,20.8
2015-05-02T00:56:31.508Z,20.8
2015-05-02T00:56:49.914Z,20.8
2015-05-02T00:57:08.545Z,20.8
2015-05-02T00:57:27.139Z,20.8
2015-05-02T00:57:45.529Z,20.8
2015-05-02T00:58:04.068Z,20.8
2015-05-02T00:58:22.553Z,20.8
2015-05-02T00:58:40.943Z,20.8
2015-05-02T00:58:59.334Z,20.9
2015-05-02T00:59:17.776Z,20.9
2015-05-02T00:59:36.322Z,20.9
2015-05-02T00:59:54.760Z,20.9
2015-05-02T01:00:13.326Z,20.9
2015-05-02T01:00:31.826Z,20.9
2015-05-02T01:00:50.248Z,20.9
2015-05-02T01:01:08.780Z,20.9
2015-05-02T01:01:27.206Z,20.9
2015-05-02T01:01:44.941Z,20.9
2015-05-02T01:02:03.363Z,20.9
2015-05-02T01:02:22.038Z,20.9
2015-05-02T01:02:40.569Z,20.9
2015-05-02T01:02:58.959Z,20.9
2015-05-02T01:03:17.584Z,20.9
2015-05-02T01:03:36.074Z,20.9
2015-05-02T01:03:54.511Z,20.9
2015-05-02T01:04:12.902Z,20.9
2015-05-02T01:04:31.608Z,20.9
2015-05-02T01:04:50.014Z,20.9
2015-05-02T01:05:08.514Z,20.9
2015-05-02T01:05:27.001Z,20.9
2015-05-02T01:05:45.548Z,20.9
2015-05-02T01:06:03.985Z,20.9
2015-05-02T01:06:22.782Z,20.9
2015-05-02T01:06:41.175Z,20.9
2015-05-02T01:06:59.768Z,20.9
2015-05-02T01:07:18.315Z,20.9
2015-05-02T01:07:36.788Z,20.9
2015-05-02T01:07:55.194Z,20.9
2015-05-02T01:08:13.710Z,20.9
2015-05-02T01:08:32.212Z,20.9
2015-05-02T01:08:50.634Z,20.9
2015-05-02T01:09:09.118Z,20.9
2015-05-02T01:09:27.574Z,20.9
2015-05-02T01:09:45.980Z,20.9
2015-05-02T01:10:04.418Z,20.9
2015-05-02T01:10:22.855Z,20.9
2015-05-02T01:10:41.358Z,21
2015-05-02T01:10:59.812Z,20.9
2015-05-02T01:11:18.530Z,21
2015-05-02T01:11:37.330Z,21
2015-05-02T01:11:56.018Z,21
2015-05-02T01:12:14.408Z,21
2015-05-02T01:12:33.223Z,21
2015-05-02T01:12:51.848Z,21
2015-05-02T01:13:10.301Z,21
2015-05-02T01:13:28.942Z,21
2015-05-02T01:13:47.663Z,21
2015-05-02T01:14:06.132Z,21
2015-05-02T01:14:24.788Z,21
2015-05-02T01:14:43.243Z,21
2015-05-02T01:15:01.884Z,21
2015-05-02T01:15:20.275Z,21
2015-05-02T01:15:38.855Z,21
2015-05-02T01:15:57.433Z,21
2015-05-02T01:16:15.870Z,21
2015-05-02T01:16:34.514Z,21
2015-05-02T01:16:53.233Z,21
2015-05-02T01:17:11.764Z,21
2015-05-02T01:17:30.264Z,21
2015-05-02T01:17:48.767Z,21
2015-05-02T01:18:07.236Z,21
2015-05-02T01:18:25.876Z,21
2015-05-02T01:18:44.378Z,21
2015-05-02T01:19:02.769Z,21
2015-05-02T01:19:21.191Z,21
2015-05-02T01:19:40.115Z,21
2015-05-02T01:19:58.771Z,21
2015-05-02T01:20:17.474Z,21
2015-05-02T01:20:35.896Z,21
2015-05-02T01:20:54.462Z,21
2015-05-02T01:21:13.102Z,21
2015-05-02T01:21:31.618Z,21
2015-05-02T01:21:50.009Z,21
2015-05-02T01:22:08.431Z,21.1
2015-05-02T01:22:26.931Z,21.1
2015-05-02T01:22:45.466Z,21.1
2015-05-02T01:23:04.059Z,21.1
2015-05-02T01:23:22.528Z,21.1
2015-05-02T01:23:41.028Z,21.1
2015-05-02T01:23:59.968Z,21.1
2015-05-02T01:24:18.436Z,21.1
2015-05-02T01:24:36.889Z,21.1
2015-05-02T01:24:55.361Z,21.1
2015-05-02T01:25:14.064Z,21.1
2015-05-02T01:25:32.877Z,21.1
2015-05-02T01:25:51.361Z,21.1
2015-05-02T01:26:10.113Z,21.1
2015-05-02T01:26:28.691Z,21.2
2015-05-02T01:26:47.144Z,21.2
2015-05-02T01:27:05.538Z,21.2
2015-05-02T01:27:24.116Z,21.2
2015-05-02T01:27:42.538Z,21.2
2015-05-02T01:28:01.085Z,21.2
2015-05-02T01:28:19.806Z,21.2
2015-05-02T01:28:38.415Z,21.2
2015-05-02T01:28:56.868Z,21.2
2015-05-02T01:29:15.574Z,21.3
2015-05-02T01:29:34.246Z,21.3
2015-05-02T01:29:52.793Z,21.3
2015-05-02T01:30:11.467Z,21.3
2015-05-02T01:30:30.014Z,21.3
2015-05-02T01:30:48.576Z,21.3
2015-05-02T01:31:06.969Z,21.3
2015-05-02T01:31:25.469Z,21.3
2015-05-02T01:31:43.906Z,21.3
2015-05-02T01:32:02.438Z,21.3
2015-05-02T01:32:20.863Z,21.3
2015-05-02T01:32:39.128Z,21.3
2015-05-02T01:32:57.738Z,21.3
2015-05-02T01:33:16.380Z,21.3
2015-05-02T01:33:34.911Z,21.3
2015-05-02T01:33:53.521Z,21.3
2015-05-02T01:34:12.007Z,21.4
2015-05-02T01:34:30.648Z,21.4
2015-05-02T01:34:49.335Z,21.4
2015-05-02T01:35:07.742Z,21.4
2015-05-02T01:35:26.135Z,21.4
2015-05-02T01:35:44.651Z,21.4
2015-05-02T01:36:03.120Z,21.4
2015-05-02T01:36:21.559Z,21.4
2015-05-02T01:36:39.950Z,21.4
2015-05-02T01:36:58.481Z,21.4
2015-05-02T01:37:16.874Z,21.4
2015-05-02T01:37:35.389Z,21.4
2015-05-02T01:37:53.514Z,21.4
2015-05-02T01:38:12.170Z,21.4
2015-05-02T01:38:30.766Z,21.4
2015-05-02T01:38:49.407Z,21.4
2015-05-02T01:39:07.985Z,21.4
2015-05-02T01:39:26.379Z,21.4
2015-05-02T01:39:45.035Z,21.4
2015-05-02T01:40:03.457Z,21.4
2015-05-02T01:40:22.116Z,21.4
2015-05-02T01:40:40.538Z,21.4
2015-05-02T01:40:59.069Z,21.4
2015-05-02T01:41:17.712Z,21.5
2015-05-02T01:41:36.196Z,21.5
2015-05-02T01:41:54.852Z,21.5
2015-05-02T01:42:13.555Z,21.5
2015-05-02T01:42:32.089Z,21.5
2015-05-02T01:42:50.557Z,21.5
2015-05-02T01:43:09.136Z,21.5
2015-05-02T01:43:27.748Z,21.5
2015-05-02T01:43:46.232Z,21.5
2015-05-02T01:44:04.639Z,21.5
2015-05-02T01:44:23.109Z,21.5
2015-05-02T01:44:41.859Z,21.5
2015-05-02T01:45:00.359Z,21.5
2015-05-02T01:45:19.156Z,21.5
2015-05-02T01:45:37.564Z,21.5
2015-05-02T01:45:56.143Z,21.5
2015-05-02T01:46:14.877Z,21.5
2015-05-02T01:46:33.285Z,21.5
2015-05-02T01:46:51.910Z,21.5
2015-05-02T01:47:10.566Z,21.5
2015-05-02T01:47:29.038Z,21.5
2015-05-02T01:47:47.601Z,21.5
2015-05-02T01:48:06.038Z,21.6
2015-05-02T01:48:24.632Z,21.6
2015-05-02T01:48:43.087Z,21.6
2015-05-02T01:49:01.696Z,21.6
2015-05-02T01:49:20.384Z,21.6
2015-05-02T01:49:39.121Z,21.6
2015-05-02T01:49:57.637Z,21.6
2015-05-02T01:50:16.028Z,21.6
2015-05-02T01:50:34.699Z,21.6
2015-05-02T01:50:53.092Z,21.6
2015-05-02T01:51:11.498Z,21.6
2015-05-02T01:51:29.920Z,21.6
2015-05-02T01:51:48.439Z,21.6
2015-05-02T01:52:06.892Z,21.6
2015-05-02T01:52:25.439Z,21.6
2015-05-02T01:52:43.939Z,21.6
2015-05-02T01:53:02.411Z,21.6
2015-05-02T01:53:20.957Z,21.6
2015-05-02T01:53:39.379Z,21.6
2015-05-02T01:53:57.928Z,21.6
2015-05-02T01:54:16.381Z,21.6
2015-05-02T01:54:34.819Z,21.6
2015-05-02T01:54:53.290Z,21.6
2015-05-02T01:55:11.899Z,21.6
2015-05-02T01:55:30.305Z,21.6
2015-05-02T01:55:48.852Z,21.6
2015-05-02T01:56:07.588Z,21.6
2015-05-02T01:56:26.026Z,21.6
2015-05-02T01:56:44.432Z,21.6
2015-05-02T01:57:02.904Z,21.6
2015-05-02T01:57:21.545Z,21.6
2015-05-02T01:57:40.045Z,21.6
2015-05-02T01:57:58.734Z,21.6
2015-05-02T01:58:17.234Z,21.6
2015-05-02T01:58:35.859Z,21.6
2015-05-02T01:58:54.564Z,21.6
2015-05-02T01:59:12.986Z,21.7
2015-05-02T01:59:31.377Z,21.7
2015-05-02T01:59:49.799Z,21.7
2015-05-02T02:00:07.629Z,21.7
2015-05-02T02:00:26.285Z,21.7
2015-05-02T02:00:44.676Z,21.7
2015-05-02T02:01:03.069Z,21.7
2015-05-02T02:01:21.663Z,21.7
2015-05-02T02:01:40.069Z,21.7
2015-05-02T02:01:58.493Z,21.7
2015-05-02T02:02:16.899Z,21.7
2015-05-02T02:02:35.493Z,21.7
2015-05-02T02:02:53.931Z,21.7
2015-05-02T02:03:12.604Z,21.7
2015-05-02T02:03:31.026Z,21.7
2015-05-02T02:03:49.386Z,21.7
2015-05-02T02:04:07.889Z,21.7
2015-05-02T02:04:26.326Z,21.7
2015-05-02T02:04:44.717Z,21.7
2015-05-02T02:05:03.282Z,21.7
2015-05-02T02:05:21.923Z,21.8
2015-05-02T02:05:40.439Z,21.8
2015-05-02T02:05:59.157Z,21.8
2015-05-02T02:06:16.956Z,21.7
2015-05-02T02:06:35.628Z,21.8
2015-05-02T02:06:54.034Z,21.8
2015-05-02T02:07:12.599Z,21.8
2015-05-02T02:07:31.193Z,21.8
2015-05-02T02:07:49.849Z,21.8
2015-05-02T02:08:08.304Z,21.8
2015-05-02T02:08:27.054Z,21.8
2015-05-02T02:08:45.523Z,21.8
2015-05-02T02:09:03.932Z,21.8
2015-05-02T02:09:22.354Z,21.8
2015-05-02T02:09:40.948Z,21.8
2015-05-02T02:09:59.448Z,21.8
2015-05-02T02:10:18.028Z,21.8
2015-05-02T02:10:36.403Z,21.8
2015-05-02T02:10:55.059Z,21.8
2015-05-02T02:11:13.748Z,21.8
2015-05-02T02:11:32.139Z,21.8
2015-05-02T02:11:50.998Z,21.8
2015-05-02T02:12:09.705Z,21.8
2015-05-02T02:12:28.314Z,21.8
2015-05-02T02:12:46.783Z,21.8
2015-05-02T02:13:05.361Z,21.8
2015-05-02T02:13:23.847Z,21.8
2015-05-02T02:13:42.457Z,21.8
2015-05-02T02:14:00.863Z,21.8
2015-05-02T02:14:19.303Z,21.8
2015-05-02T02:14:37.710Z,21.8
2015-05-02T02:14:56.210Z,21.8
2015-05-02T02:15:14.618Z,21.8
2015-05-02T02:15:33.102Z,21.8
2015-05-02T02:15:51.727Z,21.8
2015-05-02T02:16:10.290Z,21.8
2015-05-02T02:16:28.746Z,21.8
2015-05-02T02:16:47.136Z,21.8
2015-05-02T02:17:05.683Z,21.8
2015-05-02T02:17:24.279Z,21.8
2015-05-02T02:17:42.935Z,21.9
2015-05-02T02:18:01.592Z,21.8
2015-05-02T02:18:20.076Z,21.8
2015-05-02T02:18:38.515Z,21.8
2015-05-02T02:18:56.984Z,21.9
2015-05-02T02:19:15.390Z,21.9
2015-05-02T02:19:33.940Z,21.9
2015-05-02T02:19:52.347Z,21.9
2015-05-02T02:20:10.737Z,21.9
2015-05-02T02:20:29.159Z,21.9
2015-05-02T02:20:47.552Z,21.9
2015-05-02T02:21:05.317Z,21.9
2015-05-02T02:21:23.739Z,21.9
2015-05-02T02:21:42.164Z,21.8
2015-05-02T02:22:00.586Z,21.9
2015-05-02T02:22:18.977Z,21.9
2015-05-02T02:22:37.398Z,21.8
2015-05-02T02:22:55.838Z,21.9
2015-05-02T02:23:14.275Z,21.8
2015-05-02T02:23:32.869Z,21.8
2015-05-02T02:23:51.357Z,21.8
2015-05-02T02:24:09.810Z,21.8
2015-05-02T02:24:28.497Z,21.8
2015-05-02T02:24:46.888Z,21.8
2015-05-02T02:25:05.452Z,21.8
2015-05-02T02:25:23.921Z,21.8
2015-05-02T02:25:42.718Z,21.8
2015-05-02T02:26:01.112Z,21.8
2015-05-02T02:26:20.002Z,21.8
2015-05-02T02:26:38.471Z,21.8
2015-05-02T02:26:57.067Z,21.8
2015-05-02T02:27:15.457Z,21.8
2015-05-02T02:27:33.926Z,21.8
2015-05-02T02:27:52.428Z,21.8
2015-05-02T02:28:10.834Z,21.8
2015-05-02T02:28:29.334Z,21.8
2015-05-02T02:28:47.881Z,21.8
2015-05-02T02:29:06.289Z,21.8
2015-05-02T02:29:24.789Z,21.8
2015-05-02T02:29:43.368Z,21.8
2015-05-02T02:30:01.824Z,21.8
2015-05-02T02:30:20.355Z,21.8
2015-05-02T02:30:38.824Z,21.8
2015-05-02T02:30:57.388Z,21.8
2015-05-02T02:31:16.060Z,21.8
2015-05-02T02:31:34.560Z,21.8
2015-05-02T02:31:53.044Z,21.8
2015-05-02T02:32:11.829Z,21.8
2015-05-02T02:32:30.579Z,21.8
2015-05-02T02:32:49.126Z,21.8
2015-05-02T02:33:06.877Z,21.7
2015-05-02T02:33:25.314Z,21.7
2015-05-02T02:33:43.923Z,21.7
2015-05-02T02:34:02.520Z,21.7
2015-05-02T02:34:20.911Z,21.7
2015-05-02T02:34:39.380Z,21.7
2015-05-02T02:34:57.788Z,21.7
2015-05-02T02:35:16.413Z,21.7
2015-05-02T02:35:34.944Z,21.7
2015-05-02T02:35:53.413Z,21.7
2015-05-02T02:36:12.010Z,21.7
2015-05-02T02:36:30.650Z,21.7
2015-05-02T02:36:49.244Z,21.7
2015-05-02T02:37:07.902Z,21.7
2015-05-02T02:37:26.308Z,21.7
2015-05-02T02:37:44.746Z,21.7
2015-05-02T02:38:03.186Z,21.7
2015-05-02T02:38:21.608Z,21.7
2015-05-02T02:38:40.202Z,21.7
2015-05-02T02:38:58.921Z,21.7
2015-05-02T02:39:17.454Z,21.7
2015-05-02T02:39:35.923Z,21.7
2015-05-02T02:39:55.767Z,21.7
2015-05-02T02:40:14.597Z,21.7
2015-05-02T02:40:32.722Z,21.7
2015-05-02T02:40:51.331Z,21.7
2015-05-02T02:41:09.287Z,21.7
2015-05-02T02:41:27.772Z,21.7
2015-05-02T02:41:46.365Z,21.7
2015-05-02T02:42:05.022Z,21.6
2015-05-02T02:42:23.415Z,21.6
2015-05-02T02:42:41.931Z,21.6
2015-05-02T02:43:00.431Z,21.6
2015-05-02T02:43:18.902Z,21.6
2015-05-02T02:43:37.402Z,21.6
2015-05-02T02:43:55.933Z,21.6
2015-05-02T02:44:14.448Z,21.6
2015-05-02T02:44:33.029Z,21.6
2015-05-02T02:44:51.560Z,21.6
2015-05-02T02:45:10.029Z,21.6
2015-05-02T02:45:28.610Z,21.6
2015-05-02T02:45:47.078Z,21.6
2015-05-02T02:46:05.719Z,21.6
2015-05-02T02:46:24.282Z,21.6
2015-05-02T02:46:42.752Z,21.7
2015-05-02T02:47:01.440Z,21.6
2015-05-02T02:47:20.080Z,21.6
2015-05-02T02:47:38.521Z,21.7
2015-05-02T02:47:57.068Z,21.7
2015-05-02T02:48:15.630Z,21.7
2015-05-02T02:48:34.068Z,21.7
2015-05-02T02:48:52.679Z,21.7
2015-05-02T02:49:11.148Z,21.7
2015-05-02T02:49:29.554Z,21.7
2015-05-02T02:49:48.150Z,21.7
2015-05-02T02:50:06.634Z,21.7
2015-05-02T02:50:25.197Z,21.7
2015-05-02T02:50:43.762Z,21.7
2015-05-02T02:51:02.200Z,21.7
2015-05-02T02:51:20.731Z,21.7
2015-05-02T02:51:39.153Z,21.7
2015-05-02T02:51:57.889Z,21.7
2015-05-02T02:52:16.421Z,21.7
2015-05-02T02:52:34.874Z,21.7
2015-05-02T02:52:53.657Z,21.7
2015-05-02T02:53:12.094Z,21.7
2015-05-02T02:53:30.594Z,21.7
2015-05-02T02:53:49.081Z,21.7
2015-05-02T02:54:07.596Z,21.7
2015-05-02T02:54:26.237Z,21.7
2015-05-02T02:54:44.928Z,21.7
2015-05-02T02:55:03.381Z,21.7
2015-05-02T02:55:21.912Z,21.7
2015-05-02T02:55:40.553Z,21.7
2015-05-02T02:55:59.149Z,21.7
2015-05-02T02:56:17.712Z,21.7
2015-05-02T02:56:36.509Z,21.7
2015-05-02T02:56:54.917Z,21.7
2015-05-02T02:57:13.386Z,21.7
2015-05-02T02:57:31.854Z,21.7
2015-05-02T02:57:50.450Z,21.7
2015-05-02T02:58:09.106Z,21.7
2015-05-02T02:58:27.669Z,21.7
2015-05-02T02:58:46.106Z,21.7
2015-05-02T02:59:04.577Z,21.7
2015-05-02T02:59:23.093Z,21.7
2015-05-02T02:59:41.562Z,21.7
2015-05-02T02:59:59.986Z,21.7
2015-05-02T03:00:18.596Z,21.7
2015-05-02T03:00:37.033Z,21.7
2015-05-02T03:00:55.551Z,21.7
2015-05-02T03:01:14.145Z,21.7
2015-05-02T03:01:32.707Z,21.7
2015-05-02T03:01:51.241Z,21.7
2015-05-02T03:02:09.726Z,21.7
2015-05-02T03:02:28.335Z,21.7
2015-05-02T03:02:46.882Z,21.7
2015-05-02T03:03:05.400Z,21.7
2015-05-02T03:03:24.056Z,21.7
2015-05-02T03:03:42.634Z,21.7
2015-05-02T03:04:01.246Z,21.7
2015-05-02T03:04:19.731Z,21.7
2015-05-02T03:04:38.121Z,21.7
2015-05-02T03:04:56.811Z,21.7
2015-05-02T03:05:15.436Z,21.7
2015-05-02T03:05:34.092Z,21.7
2015-05-02T03:05:52.905Z,21.7
2015-05-02T03:06:11.610Z,21.7
2015-05-02T03:06:30.094Z,21.7
2015-05-02T03:06:48.532Z,21.7
2015-05-02T03:07:07.221Z,21.7
2015-05-02T03:07:25.643Z,21.7
2015-05-02T03:07:44.081Z,21.7
2015-05-02T03:08:02.834Z,21.7
2015-05-02T03:08:21.224Z,21.7
2015-05-02T03:08:39.787Z,21.7
2015-05-02T03:08:58.584Z,21.7
2015-05-02T03:09:16.976Z,21.7
2015-05-02T03:09:35.429Z,21.7
2015-05-02T03:09:53.836Z,21.7
2015-05-02T03:10:12.432Z,21.7
2015-05-02T03:10:30.823Z,21.7
2015-05-02T03:10:49.214Z,21.7
2015-05-02T03:11:07.635Z,21.7
2015-05-02T03:11:26.106Z,21.7
2015-05-02T03:11:44.731Z,21.7
2015-05-02T03:12:03.403Z,21.7
2015-05-02T03:12:21.875Z,21.7
2015-05-02T03:12:40.672Z,21.7
2015-05-02T03:12:59.094Z,21.7
2015-05-02T03:13:17.625Z,21.7
2015-05-02T03:13:36.064Z,21.7
2015-05-02T03:13:53.924Z,21.7
2015-05-02T03:14:12.361Z,21.7
2015-05-02T03:14:30.863Z,21.7
2015-05-02T03:14:49.269Z,21.7
2015-05-02T03:15:07.707Z,21.7
2015-05-02T03:15:26.225Z,21.7
2015-05-02T03:15:44.771Z,21.6
2015-05-02T03:16:03.428Z,21.7
2015-05-02T03:16:21.850Z,21.7
2015-05-02T03:16:40.618Z,21.7
2015-05-02T03:16:59.103Z,21.7
2015-05-02T03:17:17.806Z,21.6
2015-05-02T03:17:36.340Z,21.7
2015-05-02T03:17:54.887Z,21.6
2015-05-02T03:18:13.277Z,21.7
2015-05-02T03:18:31.967Z,21.7
2015-05-02T03:18:50.967Z,21.7
2015-05-02T03:19:09.717Z,21.7
2015-05-02T03:19:28.141Z,21.7
2015-05-02T03:19:46.735Z,21.7
2015-05-02T03:20:05.547Z,21.7
2015-05-02T03:20:24.094Z,21.7
2015-05-02T03:20:42.644Z,21.7
2015-05-02T03:21:01.238Z,21.7
2015-05-02T03:21:19.753Z,21.7
2015-05-02T03:21:38.193Z,21.6
2015-05-02T03:21:56.677Z,21.6
2015-05-02T03:22:15.458Z,21.6
2015-05-02T03:22:34.273Z,21.6
2015-05-02T03:22:52.851Z,21.6
2015-05-02T03:23:11.523Z,21.6
2015-05-02T03:23:29.962Z,21.6
2015-05-02T03:23:48.822Z,21.6
2015-05-02T03:24:07.337Z,21.6
2015-05-02T03:24:25.775Z,21.6
2015-05-02T03:24:44.167Z,21.6
2015-05-02T03:25:02.902Z,21.6
2015-05-02T03:25:21.527Z,21.6
2015-05-02T03:25:40.060Z,21.6
2015-05-02T03:25:58.451Z,21.6
2015-05-02T03:26:16.966Z,21.6
2015-05-02T03:26:35.580Z,21.6
2015-05-02T03:26:54.173Z,21.6
2015-05-02T03:27:12.564Z,21.6
2015-05-02T03:27:31.048Z,21.6
2015-05-02T03:27:49.769Z,21.6
2015-05-02T03:28:08.300Z,21.6
2015-05-02T03:28:26.691Z,21.6
2015-05-02T03:28:45.427Z,21.7
2015-05-02T03:29:04.052Z,21.7
2015-05-02T03:29:22.631Z,21.7
2015-05-02T03:29:41.039Z,21.7
2015-05-02T03:29:59.476Z,21.7
2015-05-02T03:30:18.070Z,21.7
2015-05-02T03:30:36.679Z,21.7
2015-05-02T03:30:55.214Z,21.7
2015-05-02T03:31:14.011Z,21.7
2015-05-02T03:31:32.448Z,21.7
2015-05-02T03:31:51.372Z,21.7
2015-05-02T03:32:09.888Z,21.7
2015-05-02T03:32:28.559Z,21.8
2015-05-02T03:32:47.263Z,21.8
2015-05-02T03:33:06.078Z,21.8
2015-05-02T03:33:24.844Z,21.8
2015-05-02T03:33:43.406Z,21.8
2015-05-02T03:34:02.018Z,21.8
2015-05-02T03:34:20.580Z,21.8
2015-05-02T03:34:39.252Z,21.8
2015-05-02T03:34:57.724Z,21.8
2015-05-02T03:35:16.286Z,21.8
2015-05-02T03:35:34.677Z,21.8
2015-05-02T03:35:53.177Z,21.9
2015-05-02T03:36:12.053Z,21.9
2015-05-02T03:36:30.506Z,21.9
2015-05-02T03:36:48.897Z,21.9
2015-05-02T03:37:07.415Z,21.9
2015-05-02T03:37:25.946Z,21.9
2015-05-02T03:37:44.337Z,21.9
2015-05-02T03:38:02.887Z,21.9
2015-05-02T03:38:21.371Z,21.9
2015-05-02T03:38:39.793Z,21.9
2015-05-02T03:38:58.436Z,21.9
2015-05-02T03:39:17.030Z,21.9
2015-05-02T03:39:35.795Z,21.9
2015-05-02T03:39:54.217Z,21.9
2015-05-02T03:40:12.953Z,21.9
2015-05-02T03:40:31.750Z,21.9
2015-05-02T03:40:50.360Z,21.9
2015-05-02T03:41:08.909Z,21.9
2015-05-02T03:41:27.612Z,21.9
2015-05-02T03:41:46.174Z,22
2015-05-02T03:42:04.802Z,21.9
2015-05-02T03:42:23.380Z,22
2015-05-02T03:42:41.958Z,22
2015-05-02T03:43:00.570Z,22
2015-05-02T03:43:19.195Z,22
2015-05-02T03:43:37.867Z,22
2015-05-02T03:43:56.289Z,22
2015-05-02T03:44:14.759Z,22
2015-05-02T03:44:33.509Z,22
2015-05-02T03:44:52.119Z,22
2015-05-02T03:45:10.621Z,22
2015-05-02T03:45:29.543Z,22
2015-05-02T03:45:47.933Z,22
2015-05-02T03:46:06.311Z,22
2015-05-02T03:46:24.842Z,22
2015-05-02T03:46:43.249Z,22
2015-05-02T03:47:02.217Z,22
2015-05-02T03:47:20.829Z,22
2015-05-02T03:47:39.313Z,22
2015-05-02T03:47:57.829Z,22
2015-05-02T03:48:16.660Z,22
2015-05-02T03:48:35.363Z,22
2015-05-02T03:48:54.113Z,22
2015-05-02T03:49:12.709Z,22.1
2015-05-02T03:49:31.256Z,22.1
2015-05-02T03:49:49.896Z,22.1
2015-05-02T03:50:08.490Z,22.1
2015-05-02T03:50:27.196Z,22.1
2015-05-02T03:50:45.806Z,22.1
2015-05-02T03:51:04.243Z,22.1
2015-05-02T03:51:23.059Z,22.1
2015-05-02T03:51:41.793Z,22.1
2015-05-02T03:52:00.340Z,22.1
2015-05-02T03:52:18.809Z,22.1
2015-05-02T03:52:37.186Z,22.1
2015-05-02T03:52:55.686Z,22.1
2015-05-02T03:53:14.451Z,22.1
2015-05-02T03:53:33.156Z,22.1
2015-05-02T03:53:51.625Z,22.1
2015-05-02T03:54:10.125Z,22.1
2015-05-02T03:54:28.734Z,22.1
2015-05-02T03:54:47.206Z,22.2
2015-05-02T03:55:05.800Z,22.2
2015-05-02T03:55:24.706Z,22.2
2015-05-02T03:55:43.303Z,22.2
2015-05-02T03:56:02.178Z,22.2
2015-05-02T03:56:20.756Z,22.2
2015-05-02T03:56:39.399Z,22.2
2015-05-02T03:56:58.196Z,22.2
2015-05-02T03:57:16.774Z,22.2
2015-05-02T03:57:35.244Z,22.2
2015-05-02T03:57:53.807Z,22.2
2015-05-02T03:58:12.323Z,22.2
2015-05-02T03:58:30.760Z,22.2
2015-05-02T03:58:49.309Z,22.2
2015-05-02T03:59:07.731Z,22.2
2015-05-02T03:59:26.309Z,22.2
2015-05-02T03:59:44.765Z,22.2
2015-05-02T04:00:03.203Z,22.2
2015-05-02T04:00:21.749Z,22.2
2015-05-02T04:00:40.298Z,22.2
2015-05-02T04:00:58.783Z,22.2
2015-05-02T04:01:17.298Z,22.2
2015-05-02T04:01:35.939Z,22.2
2015-05-02T04:01:54.675Z,22.2
2015-05-02T04:02:13.253Z,22.2
2015-05-02T04:02:31.816Z,22.2
2015-05-02T04:02:49.585Z,22.2
2015-05-02T04:03:07.975Z,22.2
2015-05-02T04:03:26.647Z,22.2
2015-05-02T04:03:45.149Z,22.2
2015-05-02T04:04:03.805Z,22.2
2015-05-02T04:04:22.415Z,22.2
2015-05-02T04:04:41.120Z,22.2
2015-05-02T04:04:59.714Z,22.2
2015-05-02T04:05:18.104Z,22.2
2015-05-02T04:05:36.589Z,22.2
2015-05-02T04:05:55.075Z,22.2
2015-05-02T04:06:13.466Z,22.2
2015-05-02T04:06:31.919Z,22.2
2015-05-02T04:06:50.312Z,22.2
2015-05-02T04:07:08.703Z,22.2
2015-05-02T04:07:27.265Z,22.2
2015-05-02T04:07:45.752Z,22.3
2015-05-02T04:08:04.346Z,22.2